Platzwetter Flugplatz Wels

Flugwetter Linz LOWL

[Quelle: ADDS]
METAR
LOWL 022250Z AUTO 10006KT 070V140 8000 FEW006 BKN007 01/M00 Q1020 =
LOWL 021715Z 0218/0318 10005KT 5000 OVC010 TX02/0313Z TN00/0305Z BECMG 0218/0220 3000 OVC006 TEMPO 0222/0308 2000 OVC003 PROB30 TEMPO 0300/0307 0600 FG VV002 BECMG 0308/0310 5000 TEMPO 0312/0318 FEW010
TAF
LOWL 021715Z 0218/0318 10005KT 5000 OVC010 TX02/0313Z TN00/0305Z BECMG 0218/0220 3000 OVC006 TEMPO 0222/0308 2000 OVC003 PROB30 TEMPO 0300/0307 0600 FG VV002 BECMG 0308/0310 5000 TEMPO 0312/0318 FEW010 =

Flugwetter Salzburg LOWS

[Quelle: ADDS]
METAR
LOWS 022250Z AUTO 32002KT 9000 FEW007 BKN008 01/01 Q1018 =
LOWS 021715Z 0218/0318 VRB03KT 8000 FEW006 BKN015 TX02/0313Z TN00/0306Z TEMPO 0218/0221 4000 -RASN BKN012 TEMPO 0300/0308 4000 BKN008 TEMPO 0308/0318 BKN013
TAF
LOWS 021715Z 0218/0318 VRB03KT 8000 FEW006 BKN015 TX02/0313Z TN00/0306Z TEMPO 0218/0221 4000 -RASN BKN012 TEMPO 0300/0308 4000 BKN008 TEMPO 0308/0318 BKN013 =

Wind - Verlauf

Windrichtung - Verlauf

Temperatur - Verlauf

Relative Luftfeuchtigkeit - Verlauf

Luftdruck - Verlauf